createdAt,value
2023-01-27T00:01:10.137Z,73.02
2023-01-27T00:03:37.506Z,72.98
2023-01-27T00:06:06.671Z,73.02
2023-01-27T00:08:34.384Z,73.14
2023-01-27T00:11:40.586Z,72.93
2023-01-27T00:14:07.848Z,73.34
2023-01-27T00:16:35.371Z,73.96
2023-01-27T00:19:02.631Z,74.31
2023-01-27T00:21:48.727Z,75.92
2023-01-27T00:24:34.666Z,76.79
2023-01-27T00:27:03.889Z,76.39
2023-01-27T00:29:31.165Z,76.28
2023-01-27T00:32:17.405Z,76.46
2023-01-27T00:34:44.724Z,76.45
2023-01-27T00:37:12.518Z,77.06
2023-01-27T00:39:39.845Z,76.99
2023-01-27T00:42:07.429Z,76.86
2023-01-27T00:44:34.746Z,76.53
2023-01-27T00:47:02.339Z,76.60
2023-01-27T00:49:29.612Z,76.59
2023-01-27T00:51:57.130Z,76.43
2023-01-27T00:54:24.436Z,76.44
2023-01-27T00:56:51.990Z,76.52
2023-01-27T00:59:19.321Z,76.85
2023-01-27T01:01:46.880Z,77.08
2023-01-27T01:04:14.288Z,77.21
2023-01-27T01:06:41.896Z,77.50
2023-01-27T01:09:09.161Z,77.48
2023-01-27T01:11:36.715Z,77.79
2023-01-27T01:14:03.992Z,77.76
2023-01-27T01:16:31.654Z,77.77
2023-01-27T01:18:58.988Z,77.98
2023-01-27T01:21:26.643Z,78.05
2023-01-27T01:23:53.938Z,78.19
2023-01-27T01:26:21.565Z,78.30
2023-01-27T01:28:48.916Z,78.90
2023-01-27T01:31:20.041Z,78.71
2023-01-27T01:33:48.491Z,79.43
2023-01-27T01:36:20.440Z,80.16
2023-01-27T01:38:48.737Z,80.86
2023-01-27T01:41:20.456Z,80.95
2023-01-27T01:43:51.480Z,81.01
2023-01-27T01:46:20.416Z,80.99
2023-01-27T01:48:58.559Z,81.29
2023-01-27T01:51:35.480Z,81.42
2023-01-27T01:54:17.199Z,81.65
2023-01-27T01:56:58.640Z,81.90
2023-01-27T02:00:18.643Z,81.85
2023-01-27T02:02:50.285Z,81.58
2023-01-27T02:05:22.106Z,81.57
2023-01-27T02:08:15.564Z,81.84
2023-01-27T02:10:43.066Z,81.97
2023-01-27T02:13:10.686Z,81.70
2023-01-27T02:15:39.008Z,81.70
2023-01-27T02:18:07.765Z,82.02
2023-01-27T02:20:45.487Z,82.47
2023-01-27T02:23:39.526Z,82.91
2023-01-27T02:26:25.755Z,83.57
2023-01-27T02:29:00.733Z,83.10
2023-01-27T02:31:28.387Z,83.21
2023-01-27T02:34:12.252Z,83.63
2023-01-27T02:36:48.929Z,83.64
2023-01-27T02:39:22.092Z,83.71
2023-01-27T02:41:54.971Z,83.97
2023-01-27T02:44:22.591Z,83.75
2023-01-27T02:46:49.997Z,83.83
2023-01-27T02:49:17.623Z,84.07
2023-01-27T02:51:44.904Z,83.84
2023-01-27T02:54:12.497Z,84.09
2023-01-27T02:56:39.880Z,84.20
2023-01-27T02:59:07.577Z,84.17
2023-01-27T03:01:34.958Z,84.02
2023-01-27T03:04:02.534Z,83.90
2023-01-27T03:06:29.801Z,83.11
2023-01-27T03:08:57.538Z,83.58
2023-01-27T03:11:43.371Z,84.07
2023-01-27T03:14:11.006Z,83.77
2023-01-27T03:16:57.263Z,83.82
2023-01-27T03:19:26.787Z,83.99
2023-01-27T03:21:54.713Z,84.25
2023-01-27T03:24:22.907Z,84.34
2023-01-27T03:26:50.219Z,83.85
2023-01-27T03:29:36.121Z,84.08
2023-01-27T03:32:03.643Z,84.27
2023-01-27T03:34:31.201Z,84.69
2023-01-27T03:37:16.987Z,85.01
2023-01-27T03:40:02.967Z,84.67
2023-01-27T03:42:49.091Z,84.71
2023-01-27T03:45:35.446Z,84.56
2023-01-27T03:48:02.772Z,84.72
2023-01-27T03:50:43.209Z,84.61
2023-01-27T03:53:11.503Z,84.78
2023-01-27T03:55:39.488Z,84.52
2023-01-27T03:58:22.932Z,84.71
2023-01-27T04:01:14.029Z,84.58
2023-01-27T04:04:00.245Z,84.67
2023-01-27T04:06:50.237Z,83.99
2023-01-27T04:09:34.169Z,84.10
2023-01-27T04:12:05.783Z,84.55
2023-01-27T04:14:35.784Z,85.06
2023-01-27T04:17:12.794Z,85.11
2023-01-27T04:19:40.450Z,85.57
2023-01-27T04:22:13.166Z,85.37
2023-01-27T04:24:40.635Z,85.16
2023-01-27T04:27:14.161Z,85.03
2023-01-27T04:29:43.012Z,84.97
2023-01-27T04:32:13.508Z,85.30
2023-01-27T04:34:42.220Z,85.50
2023-01-27T04:37:10.713Z,85.32
2023-01-27T04:39:38.514Z,85.41
2023-01-27T04:42:06.197Z,85.34
2023-01-27T04:44:33.450Z,84.86
2023-01-27T04:47:01.150Z,84.86
2023-01-27T04:49:28.464Z,84.60
2023-01-27T04:51:56.393Z,84.52
2023-01-27T04:54:23.671Z,84.55
2023-01-27T04:57:05.704Z,84.26
2023-01-27T04:59:32.971Z,84.68
2023-01-27T05:02:00.649Z,84.87
2023-01-27T05:04:27.904Z,84.80
2023-01-27T05:06:55.859Z,84.95
2023-01-27T05:09:23.422Z,84.90
2023-01-27T05:11:50.998Z,84.94
2023-01-27T05:14:18.441Z,84.81
2023-01-27T05:16:45.998Z,84.94
2023-01-27T05:19:13.337Z,85.09
2023-01-27T05:21:40.875Z,85.15
2023-01-27T05:24:08.499Z,85.11
2023-01-27T05:26:36.136Z,84.18
2023-01-27T05:29:03.550Z,84.06
2023-01-27T05:31:32.113Z,84.04
2023-01-27T05:34:01.883Z,83.74
2023-01-27T05:36:30.310Z,83.38
2023-01-27T05:38:59.357Z,83.06
2023-01-27T05:41:33.417Z,82.53
2023-01-27T05:44:00.730Z,81.80
2023-01-27T05:46:31.139Z,81.94
2023-01-27T05:49:02.847Z,81.57
2023-01-27T05:51:36.652Z,81.55
2023-01-27T05:54:04.556Z,81.10
2023-01-27T05:56:33.169Z,80.76
2023-01-27T05:59:01.087Z,80.49
2023-01-27T06:01:32.103Z,80.41
2023-01-27T06:04:00.315Z,79.73
2023-01-27T06:06:30.967Z,78.53
2023-01-27T06:09:00.437Z,78.57
2023-01-27T06:11:28.174Z,77.85
2023-01-27T06:13:55.796Z,77.54
2023-01-27T06:16:24.098Z,77.58
2023-01-27T06:18:51.633Z,77.45
2023-01-27T06:21:20.692Z,77.50
2023-01-27T06:23:48.563Z,77.33
2023-01-27T06:26:19.646Z,77.63
2023-01-27T06:28:47.432Z,77.04
2023-01-27T06:31:22.546Z,76.62
2023-01-27T06:33:51.815Z,76.75
2023-01-27T06:36:22.282Z,75.83
2023-01-27T06:38:51.398Z,75.21
2023-01-27T06:41:19.397Z,75.80
2023-01-27T06:43:46.883Z,75.66
2023-01-27T06:46:15.146Z,76.11
2023-01-27T06:48:42.495Z,76.59
2023-01-27T06:51:10.377Z,76.19
2023-01-27T06:53:38.843Z,74.19
2023-01-27T06:56:07.137Z,73.64
2023-01-27T06:58:34.713Z,73.86
2023-01-27T07:01:06.460Z,74.46
2023-01-27T07:06:00.454Z,74.47
2023-01-27T07:08:27.758Z,73.86
2023-01-27T07:10:55.284Z,74.25
2023-01-27T07:13:22.643Z,74.26
2023-01-27T07:15:56.363Z,74.30
2023-01-27T07:18:24.226Z,74.40
2023-01-27T07:20:52.447Z,74.32
2023-01-27T07:23:20.192Z,74.53
2023-01-27T07:25:47.978Z,74.13
2023-01-27T07:28:15.256Z,74.35
2023-01-27T07:30:44.141Z,73.81
2023-01-27T07:33:14.710Z,74.25
2023-01-27T07:35:43.030Z,74.16
2023-01-27T07:38:10.519Z,74.84
2023-01-27T07:40:38.109Z,74.84
2023-01-27T07:43:05.385Z,74.83
2023-01-27T07:45:33.068Z,74.47
2023-01-27T07:48:02.581Z,73.96
2023-01-27T07:50:30.722Z,74.76
2023-01-27T07:53:03.338Z,74.14
2023-01-27T07:55:33.015Z,73.85
2023-01-27T07:58:00.346Z,73.41
2023-01-27T08:00:29.134Z,73.46
2023-01-27T08:02:58.231Z,73.38
2023-01-27T08:05:26.806Z,72.73
2023-01-27T08:07:58.664Z,72.67
2023-01-27T08:10:26.671Z,72.11
2023-01-27T08:12:54.043Z,72.03
2023-01-27T08:15:22.795Z,71.58
2023-01-27T08:17:58.060Z,71.27
2023-01-27T08:20:28.060Z,71.42
2023-01-27T08:22:56.142Z,71.01
2023-01-27T08:25:24.630Z,71.57
2023-01-27T08:27:56.882Z,71.72
2023-01-27T08:30:25.193Z,72.32
2023-01-27T08:32:52.749Z,72.60
2023-01-27T08:35:20.421Z,74.22
2023-01-27T08:37:56.079Z,74.92
2023-01-27T08:40:23.727Z,75.11
2023-01-27T08:42:51.569Z,75.34
2023-01-27T08:45:19.557Z,75.26
2023-01-27T08:47:47.170Z,76.22
2023-01-27T08:50:15.312Z,76.15
2023-01-27T08:52:44.263Z,75.56
2023-01-27T08:55:12.623Z,76.01
2023-01-27T08:57:40.058Z,76.62
2023-01-27T09:00:09.670Z,76.24
2023-01-27T09:02:37.533Z,76.35
2023-01-27T09:05:05.790Z,79.04
2023-01-27T09:07:34.283Z,79.39
2023-01-27T09:10:13.690Z,78.55
2023-01-27T09:12:43.413Z,77.93
2023-01-27T09:15:12.839Z,77.45
2023-01-27T09:17:40.688Z,76.83
2023-01-27T09:20:09.545Z,77.48
2023-01-27T09:22:40.438Z,76.62
2023-01-27T09:25:14.425Z,75.48
2023-01-27T09:27:41.855Z,74.46
2023-01-27T09:30:12.692Z,73.92
2023-01-27T09:32:40.771Z,72.71
2023-01-27T09:35:09.498Z,71.21
2023-01-27T09:37:56.876Z,70.69
2023-01-27T09:41:11.066Z,69.75
2023-01-27T09:44:22.969Z,70.20
2023-01-27T09:46:58.846Z,70.05
2023-01-27T09:49:40.016Z,69.66
2023-01-27T09:52:22.579Z,69.84
2023-01-27T09:55:07.374Z,70.19
2023-01-27T09:57:49.710Z,70.49
2023-01-27T10:00:38.198Z,71.28
2023-01-27T10:03:14.214Z,71.50
2023-01-27T10:05:50.928Z,71.08
2023-01-27T10:08:53.305Z,70.69
2023-01-27T10:11:39.876Z,71.25
2023-01-27T10:14:54.431Z,71.30
2023-01-27T10:17:34.361Z,71.37
2023-01-27T10:20:47.072Z,71.11
2023-01-27T10:23:57.688Z,71.13
2023-01-27T10:26:51.008Z,70.63
2023-01-27T10:29:28.639Z,70.84
2023-01-27T10:32:18.787Z,71.57
2023-01-27T10:35:14.421Z,71.06
2023-01-27T10:38:03.733Z,70.31
2023-01-27T10:41:24.694Z,70.12
2023-01-27T10:44:49.297Z,69.83
2023-01-27T10:47:51.201Z,69.18
2023-01-27T10:50:37.760Z,70.26
2023-01-27T10:53:28.758Z,69.64
2023-01-27T10:56:17.877Z,68.98
2023-01-27T10:58:58.253Z,67.59
2023-01-27T11:01:35.407Z,67.32
2023-01-27T11:04:34.751Z,67.61
2023-01-27T11:07:05.421Z,67.75
2023-01-27T11:09:43.830Z,66.97
2023-01-27T11:12:15.291Z,67.55
2023-01-27T11:14:48.281Z,68.00
2023-01-27T11:17:39.227Z,66.81
2023-01-27T11:20:38.444Z,66.83
2023-01-27T11:23:21.176Z,66.72
2023-01-27T11:25:55.294Z,66.58
2023-01-27T11:28:38.994Z,65.84
2023-01-27T11:31:48.088Z,64.12
2023-01-27T11:34:56.082Z,62.82
2023-01-27T11:37:49.782Z,59.10
2023-01-27T11:40:34.435Z,55.80
2023-01-27T11:43:04.017Z,57.50
2023-01-27T11:45:37.376Z,58.26
2023-01-27T11:48:14.376Z,58.43
2023-01-27T11:50:44.054Z,56.85
2023-01-27T11:53:29.696Z,58.87
2023-01-27T11:56:06.470Z,58.60
2023-01-27T11:59:09.774Z,58.05
2023-01-27T12:01:48.691Z,58.05
2023-01-27T12:04:46.512Z,57.66
2023-01-27T12:07:35.561Z,58.76
2023-01-27T12:10:21.212Z,58.33
2023-01-27T12:12:48.997Z,59.23
2023-01-27T12:15:18.506Z,58.96
2023-01-27T12:18:14.001Z,59.49
2023-01-27T12:20:48.676Z,59.57
2023-01-27T12:23:29.537Z,60.05
2023-01-27T12:26:11.251Z,60.72
2023-01-27T12:29:04.474Z,61.72
2023-01-27T12:31:44.304Z,61.45
2023-01-27T12:34:37.472Z,61.61
2023-01-27T12:37:08.145Z,61.81
2023-01-27T12:39:46.716Z,61.63
2023-01-27T12:42:43.627Z,61.14
2023-01-27T12:45:25.564Z,61.64
2023-01-27T12:48:19.890Z,61.44
2023-01-27T12:50:50.497Z,61.56
2023-01-27T12:53:27.947Z,62.11
2023-01-27T12:56:08.333Z,62.29
2023-01-27T12:58:58.794Z,64.02
2023-01-27T13:01:28.805Z,63.31
2023-01-27T13:04:04.711Z,63.82
2023-01-27T13:07:08.476Z,62.19
2023-01-27T13:10:04.316Z,62.41
2023-01-27T13:12:49.751Z,62.62
2023-01-27T13:15:24.005Z,62.58
2023-01-27T13:18:00.636Z,63.35
2023-01-27T13:20:51.016Z,63.41
2023-01-27T13:23:34.964Z,63.87
2023-01-27T13:26:11.602Z,63.53
2023-01-27T13:29:09.381Z,63.57
2023-01-27T13:32:02.146Z,63.75
2023-01-27T13:34:49.309Z,63.62
2023-01-27T13:37:46.821Z,63.68
2023-01-27T13:40:28.627Z,64.05
2023-01-27T13:43:20.238Z,64.26
2023-01-27T13:45:57.479Z,64.09
2023-01-27T13:48:37.371Z,64.34
2023-01-27T13:51:20.216Z,64.18
2023-01-27T13:53:57.547Z,64.43
2023-01-27T13:57:09.449Z,64.49
2023-01-27T14:00:27.597Z,64.67
2023-01-27T14:03:18.846Z,64.88
2023-01-27T14:06:13.403Z,65.75
2023-01-27T14:08:53.263Z,65.67
2023-01-27T14:12:03.555Z,65.49
2023-01-27T14:14:57.440Z,65.58
2023-01-27T14:17:43.725Z,65.63
2023-01-27T14:21:01.508Z,65.53
2023-01-27T14:24:05.644Z,65.30
2023-01-27T14:26:47.305Z,65.82
2023-01-27T14:29:51.560Z,65.42
2023-01-27T14:32:46.856Z,65.96
2023-01-27T14:35:37.515Z,65.73
2023-01-27T14:38:26.230Z,66.12
2023-01-27T14:41:09.391Z,66.55
2023-01-27T14:44:29.952Z,66.64
2023-01-27T14:47:47.143Z,66.33
2023-01-27T14:50:38.459Z,66.50
2023-01-27T14:53:14.674Z,68.95
2023-01-27T14:56:02.654Z,66.41
2023-01-27T14:59:06.265Z,66.02
2023-01-27T15:02:01.537Z,66.00
2023-01-27T15:05:16.727Z,66.21
2023-01-27T15:07:55.884Z,66.23
2023-01-27T15:10:29.416Z,66.09
2023-01-27T15:13:32.525Z,66.02
2023-01-27T15:16:55.043Z,65.91
2023-01-27T15:19:41.267Z,65.86
2023-01-27T15:22:38.028Z,65.65
2023-01-27T15:25:29.909Z,65.59
2023-01-27T15:27:58.850Z,65.41
2023-01-27T15:30:31.571Z,66.17
2023-01-27T15:32:59.052Z,66.93
2023-01-27T15:35:28.163Z,68.14
2023-01-27T15:38:15.895Z,70.10
2023-01-27T15:41:09.190Z,70.47
2023-01-27T15:44:02.186Z,70.76
2023-01-27T15:46:35.763Z,71.08
2023-01-27T15:49:10.994Z,70.96
2023-01-27T15:51:39.080Z,70.97
2023-01-27T15:54:19.144Z,70.91
2023-01-27T15:56:52.251Z,70.75
2023-01-27T15:59:30.585Z,70.42
2023-01-27T16:02:25.088Z,70.24
2023-01-27T16:05:22.014Z,69.79
2023-01-27T16:08:02.134Z,69.63
2023-01-27T16:10:35.616Z,69.54
2023-01-27T16:13:21.611Z,69.24
2023-01-27T16:15:49.886Z,68.63
2023-01-27T16:18:17.374Z,68.02
2023-01-27T16:20:53.295Z,67.59
2023-01-27T16:23:51.289Z,67.02
2023-01-27T16:26:43.448Z,66.38
2023-01-27T16:29:33.860Z,65.38
2023-01-27T16:32:07.140Z,64.88
2023-01-27T16:35:05.964Z,64.78
2023-01-27T16:37:39.105Z,64.16
2023-01-27T16:40:19.734Z,63.62
2023-01-27T16:42:53.101Z,63.48
2023-01-27T16:45:29.114Z,63.93
2023-01-27T16:48:21.439Z,63.82
2023-01-27T16:50:50.179Z,63.73
2023-01-27T16:53:26.166Z,63.86
2023-01-27T16:56:04.695Z,64.38
2023-01-27T16:58:45.834Z,64.12
2023-01-27T17:01:32.019Z,64.00
2023-01-27T17:04:18.023Z,63.70
2023-01-27T17:06:49.245Z,63.63
2023-01-27T17:09:41.904Z,64.04
2023-01-27T17:12:44.486Z,63.04
2023-01-27T17:15:38.184Z,63.46
2023-01-27T17:18:11.498Z,63.22
2023-01-27T17:20:45.911Z,63.60
2023-01-27T17:23:35.306Z,63.60
2023-01-27T17:26:14.821Z,63.99
2023-01-27T17:28:46.833Z,63.81
2023-01-27T17:31:22.488Z,63.85
2023-01-27T17:33:59.539Z,64.30
2023-01-27T17:36:27.581Z,64.69
2023-01-27T17:38:57.421Z,64.28
2023-01-27T17:41:36.699Z,64.32
2023-01-27T17:44:14.333Z,63.24
2023-01-27T17:46:42.056Z,61.70
2023-01-27T17:49:17.688Z,62.55
2023-01-27T17:51:53.626Z,62.07
2023-01-27T17:54:30.597Z,61.28
2023-01-27T17:57:16.216Z,62.27
2023-01-27T17:59:51.028Z,62.30
2023-01-27T18:02:31.752Z,62.58
2023-01-27T18:05:13.974Z,62.28
2023-01-27T18:07:41.800Z,62.49
2023-01-27T18:10:34.967Z,62.95
2023-01-27T18:13:20.698Z,62.78
2023-01-27T18:16:01.478Z,62.74
2023-01-27T18:18:35.717Z,62.71
2023-01-27T18:21:10.699Z,62.58
2023-01-27T18:23:45.413Z,62.89
2023-01-27T18:26:39.921Z,63.22
2023-01-27T18:29:25.769Z,63.51
2023-01-27T18:32:15.711Z,63.82
2023-01-27T18:34:57.443Z,63.89
2023-01-27T18:37:29.378Z,63.89
2023-01-27T18:39:59.955Z,64.69
2023-01-27T18:42:31.138Z,64.42
2023-01-27T18:44:58.542Z,64.19
2023-01-27T18:47:34.974Z,64.52
2023-01-27T18:50:11.086Z,65.10
2023-01-27T18:52:39.264Z,65.65
2023-01-27T18:55:30.568Z,65.78
2023-01-27T18:58:00.479Z,66.29
2023-01-27T19:00:40.436Z,67.04
2023-01-27T19:03:17.921Z,66.94
2023-01-27T19:05:46.674Z,67.56
2023-01-27T19:08:18.727Z,67.65
2023-01-27T19:10:47.667Z,67.20
2023-01-27T19:13:16.282Z,67.30
2023-01-27T19:15:55.082Z,66.77
2023-01-27T19:18:38.637Z,65.99
2023-01-27T19:21:06.694Z,66.25
2023-01-27T19:23:34.364Z,66.60
2023-01-27T19:26:05.202Z,66.16
2023-01-27T19:28:37.386Z,66.40
2023-01-27T19:31:07.503Z,65.46
2023-01-27T19:33:37.296Z,65.00
2023-01-27T19:36:42.300Z,65.07
2023-01-27T19:39:18.025Z,65.10
2023-01-27T19:41:48.282Z,65.00
2023-01-27T19:44:16.594Z,64.75
2023-01-27T19:46:43.941Z,64.20
2023-01-27T19:49:19.688Z,64.15
2023-01-27T19:51:47.343Z,63.77
2023-01-27T19:54:14.973Z,63.29
2023-01-27T19:56:42.283Z,64.06
2023-01-27T19:59:12.370Z,63.87
2023-01-27T20:01:39.662Z,63.50
2023-01-27T20:04:07.388Z,63.47
2023-01-27T20:06:34.783Z,63.31
2023-01-27T20:09:03.663Z,63.79
2023-01-27T20:11:37.998Z,64.71
2023-01-27T20:14:25.882Z,64.34
2023-01-27T20:16:53.351Z,63.84
2023-01-27T20:19:21.000Z,64.50
2023-01-27T20:21:49.902Z,64.18
2023-01-27T20:24:19.876Z,64.71
2023-01-27T20:26:47.670Z,64.80
2023-01-27T20:29:15.409Z,65.05
2023-01-27T20:31:43.339Z,65.09
2023-01-27T20:34:11.053Z,65.82
2023-01-27T20:36:38.637Z,65.87
2023-01-27T20:39:06.416Z,65.59
2023-01-27T20:41:33.892Z,65.60
2023-01-27T20:44:01.618Z,64.42
2023-01-27T20:46:30.490Z,64.81
2023-01-27T20:49:01.275Z,64.97
2023-01-27T20:51:28.827Z,65.19
2023-01-27T20:53:57.901Z,64.46
2023-01-27T20:56:25.280Z,64.47
2023-01-27T20:58:54.366Z,65.00
2023-01-27T21:01:23.628Z,65.11
2023-01-27T21:03:51.983Z,65.19
2023-01-27T21:06:20.240Z,64.24
2023-01-27T21:08:49.299Z,64.49
2023-01-27T21:11:20.155Z,64.58
2023-01-27T21:13:49.231Z,64.47
2023-01-27T21:16:16.707Z,64.69
2023-01-27T21:18:44.750Z,65.17
2023-01-27T21:21:27.065Z,65.12
2023-01-27T21:23:56.432Z,63.95
2023-01-27T21:26:24.918Z,64.60
2023-01-27T21:28:52.999Z,64.88
2023-01-27T21:31:22.614Z,65.25
2023-01-27T21:33:51.148Z,65.62
2023-01-27T21:36:19.489Z,65.16
2023-01-27T21:38:50.396Z,65.21
2023-01-27T21:41:40.483Z,65.11
2023-01-27T21:44:39.903Z,64.63
2023-01-27T21:47:14.081Z,64.87
2023-01-27T21:50:03.049Z,65.41
2023-01-27T21:52:49.259Z,65.40
2023-01-27T21:55:20.830Z,65.40
2023-01-27T21:57:53.279Z,65.25
2023-01-27T22:00:26.752Z,65.45
2023-01-27T22:02:57.119Z,65.45
2023-01-27T22:05:27.096Z,65.45
2023-01-27T22:07:54.891Z,65.59
2023-01-27T22:10:28.810Z,65.79
2023-01-27T22:13:08.293Z,65.47
2023-01-27T22:15:36.153Z,66.01
2023-01-27T22:18:05.845Z,66.02
2023-01-27T22:20:33.659Z,66.17
2023-01-27T22:23:00.898Z,66.19
2023-01-27T22:25:28.501Z,66.71
2023-01-27T22:27:56.252Z,66.16
2023-01-27T22:30:24.300Z,66.29
2023-01-27T22:32:51.634Z,65.92
2023-01-27T22:35:19.849Z,66.41
2023-01-27T22:37:49.109Z,66.67
2023-01-27T22:40:17.234Z,66.83
2023-01-27T22:42:44.522Z,66.45
2023-01-27T22:45:13.038Z,66.24
2023-01-27T22:47:40.651Z,65.72
2023-01-27T22:50:10.023Z,65.90
2023-01-27T22:52:39.325Z,66.29
2023-01-27T22:55:12.403Z,66.72
2023-01-27T22:57:39.876Z,66.93
2023-01-27T23:00:09.619Z,66.82
2023-01-27T23:02:37.289Z,66.92
2023-01-27T23:05:05.515Z,66.97
2023-01-27T23:07:32.951Z,66.99
2023-01-27T23:10:01.035Z,66.77
2023-01-27T23:12:28.365Z,66.90
2023-01-27T23:14:55.969Z,67.26
2023-01-27T23:17:23.231Z,66.61
2023-01-27T23:19:50.812Z,67.74
2023-01-27T23:22:18.099Z,66.99
2023-01-27T23:24:45.615Z,67.51
2023-01-27T23:27:12.872Z,67.50
2023-01-27T23:29:40.401Z,67.36
2023-01-27T23:32:07.955Z,67.57
2023-01-27T23:34:35.512Z,67.87
2023-01-27T23:37:02.833Z,67.97
2023-01-27T23:39:30.374Z,68.24
2023-01-27T23:41:57.628Z,67.53
2023-01-27T23:44:25.143Z,66.76
2023-01-27T23:46:52.408Z,66.79
2023-01-27T23:49:20.084Z,66.87
2023-01-27T23:51:47.412Z,67.28
2023-01-27T23:54:15.035Z,67.15
2023-01-27T23:56:42.273Z,66.83
2023-01-27T23:59:13.262Z,66.55
